createdAt,value
2018-06-01T00:01:41.211Z,33.87
2018-06-01T00:04:08.763Z,32.73
2018-06-01T00:06:36.291Z,34.40
2018-06-01T00:09:03.842Z,33.43
2018-06-01T00:11:32.164Z,33.80
2018-06-01T00:13:59.708Z,34.67
2018-06-01T00:16:27.229Z,35.07
2018-06-01T00:18:54.772Z,35.13
2018-06-01T00:21:22.291Z,35.40
2018-06-01T00:23:49.821Z,36.27
2018-06-01T00:26:17.346Z,34.87
2018-06-01T00:28:44.901Z,35.63
2018-06-01T00:31:12.419Z,35.87
2018-06-01T00:33:39.942Z,37.03
2018-06-01T00:36:07.466Z,36.10
2018-06-01T00:38:34.992Z,35.97
2018-06-01T00:41:02.530Z,37.50
2018-06-01T00:43:30.049Z,35.73
2018-06-01T00:45:57.589Z,35.13
2018-06-01T00:48:25.139Z,36.47
2018-06-01T00:50:52.660Z,36.97
2018-06-01T00:53:20.180Z,37.37
2018-06-01T00:55:47.695Z,36.47
2018-06-01T00:58:15.220Z,37.20
2018-06-01T01:00:42.744Z,36.63
2018-06-01T01:03:10.275Z,36.97
2018-06-01T01:05:37.788Z,36.20
2018-06-01T01:08:05.306Z,37.80
2018-06-01T01:10:32.832Z,38.90
2018-06-01T01:13:00.364Z,40.00
2018-06-01T01:15:27.885Z,38.00
2018-06-01T01:17:55.415Z,38.63
2018-06-01T01:20:22.934Z,38.43
2018-06-01T01:22:50.468Z,37.50
2018-06-01T01:25:17.987Z,37.73
2018-06-01T01:27:45.564Z,38.17
2018-06-01T01:30:13.088Z,38.80
2018-06-01T01:32:40.611Z,38.70
2018-06-01T01:35:08.132Z,38.87
2018-06-01T01:37:35.651Z,37.33
2018-06-01T01:40:03.176Z,37.30
2018-06-01T01:42:31.027Z,37.93
2018-06-01T01:44:58.559Z,38.47
2018-06-01T01:47:26.087Z,37.93
2018-06-01T01:49:53.618Z,38.33
2018-06-01T01:52:21.135Z,39.23
2018-06-01T01:54:49.427Z,38.97
2018-06-01T01:57:16.967Z,39.17
2018-06-01T01:59:44.495Z,37.27
2018-06-01T02:02:12.007Z,37.67
2018-06-01T02:04:40.300Z,38.93
2018-06-01T02:07:07.826Z,40.40
2018-06-01T02:09:35.344Z,38.87
2018-06-01T02:12:02.874Z,38.60
2018-06-01T02:14:30.389Z,38.23
2018-06-01T02:16:57.905Z,38.27
2018-06-01T02:19:25.422Z,37.37
2018-06-01T02:21:53.010Z,37.57
2018-06-01T02:24:20.499Z,36.23
2018-06-01T02:26:48.035Z,38.53
2018-06-01T02:29:16.697Z,37.97
2018-06-01T02:31:45.000Z,36.47
2018-06-01T02:34:12.526Z,37.47
2018-06-01T02:36:40.043Z,37.37
2018-06-01T02:39:07.559Z,37.07
2018-06-01T02:41:35.072Z,39.57
2018-06-01T02:44:02.593Z,38.57
2018-06-01T02:46:30.123Z,38.87
2018-06-01T02:48:57.641Z,37.37
2018-06-01T02:51:25.160Z,36.63
2018-06-01T02:53:52.680Z,36.83
2018-06-01T02:56:20.212Z,35.13
2018-06-01T02:58:47.735Z,37.73
2018-06-01T03:01:16.024Z,38.53
2018-06-01T03:03:43.557Z,39.07
2018-06-01T03:06:11.079Z,40.43
2018-06-01T03:08:38.611Z,42.37
2018-06-01T03:11:06.127Z,41.77
2018-06-01T03:13:33.644Z,40.80
2018-06-01T03:16:01.987Z,41.10
2018-06-01T03:18:29.510Z,39.90
2018-06-01T03:20:57.051Z,40.47
2018-06-01T03:23:24.803Z,39.57
2018-06-01T03:25:52.338Z,40.33
2018-06-01T03:28:19.871Z,40.93
2018-06-01T03:30:47.413Z,40.00
2018-06-01T03:33:14.995Z,41.57
2018-06-01T03:35:42.530Z,42.10
2018-06-01T03:38:10.051Z,40.73
2018-06-01T03:40:38.330Z,40.30
2018-06-01T03:43:05.843Z,39.80
2018-06-01T03:45:33.362Z,39.10
2018-06-01T03:48:00.884Z,43.17
2018-06-01T03:50:28.722Z,39.50
2018-06-01T03:52:56.234Z,40.80
2018-06-01T03:55:23.768Z,41.03
2018-06-01T03:57:51.288Z,40.60
2018-06-01T04:00:18.812Z,40.93
2018-06-01T04:02:46.356Z,39.50
2018-06-01T04:05:13.888Z,39.80
2018-06-01T04:07:41.413Z,39.47
2018-06-01T04:10:09.746Z,40.00
2018-06-01T04:12:37.262Z,39.33
2018-06-01T04:15:04.784Z,38.87
2018-06-01T04:17:32.327Z,41.27
2018-06-01T04:19:59.846Z,40.07
2018-06-01T04:22:27.413Z,41.43
2018-06-01T04:24:54.939Z,40.93
2018-06-01T04:27:22.466Z,40.83
2018-06-01T04:29:49.991Z,39.87
2018-06-01T04:32:17.519Z,39.73
2018-06-01T04:34:45.047Z,38.77
2018-06-01T04:37:12.583Z,39.40
2018-06-01T04:39:40.108Z,40.47
2018-06-01T04:42:07.627Z,40.83
2018-06-01T04:44:35.163Z,40.43
2018-06-01T04:47:02.683Z,40.00
2018-06-01T04:49:30.224Z,41.00
2018-06-01T04:51:57.746Z,37.20
2018-06-01T04:54:25.287Z,40.60
2018-06-01T04:56:52.803Z,39.13
2018-06-01T04:59:21.083Z,38.60
2018-06-01T05:01:48.626Z,38.93
2018-06-01T05:04:16.148Z,39.43
2018-06-01T05:06:43.678Z,38.43
2018-06-01T05:09:11.196Z,38.00
2018-06-01T05:11:38.739Z,38.80
2018-06-01T05:14:07.020Z,38.80
2018-06-01T05:16:34.604Z,38.03
2018-06-01T05:19:02.082Z,37.97
2018-06-01T05:21:29.623Z,37.33
2018-06-01T05:23:57.146Z,38.77
2018-06-01T05:26:24.671Z,38.90
2018-06-01T05:28:52.204Z,37.63
2018-06-01T05:31:19.759Z,39.07
2018-06-01T05:33:48.070Z,37.03
2018-06-01T05:36:15.593Z,37.73
2018-06-01T05:38:43.138Z,36.13
2018-06-01T05:41:10.656Z,37.17
2018-06-01T05:43:38.172Z,37.10
2018-06-01T05:46:05.694Z,38.40
2018-06-01T05:48:33.212Z,38.00
2018-06-01T05:51:00.737Z,38.23
2018-06-01T05:53:28.273Z,39.97
2018-06-01T05:55:55.799Z,34.93
2018-06-01T05:58:23.322Z,36.43
2018-06-01T06:00:50.876Z,36.70
2018-06-01T06:03:18.395Z,36.97
2018-06-01T06:05:45.915Z,36.80
2018-06-01T06:08:13.437Z,35.20
2018-06-01T06:10:40.951Z,33.87
2018-06-01T06:13:08.484Z,32.67
2018-06-01T06:15:35.998Z,31.90
2018-06-01T06:18:03.523Z,32.00
2018-06-01T06:20:31.038Z,31.87
2018-06-01T06:22:58.556Z,30.03
2018-06-01T06:25:26.077Z,30.30
2018-06-01T06:27:53.668Z,29.27
2018-06-01T06:30:21.191Z,30.00
2018-06-01T06:32:48.710Z,29.50
2018-06-01T06:35:16.239Z,27.60
2018-06-01T06:37:43.807Z,27.95
2018-06-01T06:40:11.315Z,27.52
2018-06-01T06:42:38.851Z,27.10
2018-06-01T06:45:06.377Z,27.62
2018-06-01T06:47:33.895Z,26.80
2018-06-01T06:50:01.420Z,27.23
2018-06-01T06:52:28.964Z,27.17
2018-06-01T06:54:57.253Z,25.30
2018-06-01T06:57:24.780Z,27.25
2018-06-01T06:59:52.319Z,25.60
2018-06-01T07:02:19.850Z,26.25
2018-06-01T07:04:47.383Z,25.05
2018-06-01T07:07:14.921Z,25.25
2018-06-01T07:09:42.449Z,24.02
2018-06-01T07:12:09.976Z,24.55
2018-06-01T07:14:37.507Z,24.55
2018-06-01T07:17:05.032Z,23.60
2018-06-01T07:19:32.556Z,23.23
2018-06-01T07:22:02.118Z,23.67
2018-06-01T07:24:29.638Z,24.65
2018-06-01T07:26:57.166Z,24.37
2018-06-01T07:29:24.687Z,25.48
2018-06-01T07:31:52.210Z,24.05
2018-06-01T07:34:19.732Z,25.30
2018-06-01T07:36:47.295Z,26.60
2018-06-01T07:39:18.810Z,27.80
2018-06-01T07:41:48.756Z,27.90
2018-06-01T07:44:16.283Z,26.90
2018-06-01T07:46:43.983Z,25.35
2018-06-01T07:49:11.498Z,25.20
2018-06-01T07:51:39.028Z,25.73
2018-06-01T07:54:06.546Z,25.37
2018-06-01T07:56:34.063Z,26.37
2018-06-01T07:59:01.588Z,25.83
2018-06-01T08:01:29.110Z,27.57
2018-06-01T08:03:56.637Z,26.90
2018-06-01T08:06:24.164Z,29.67
2018-06-01T08:08:51.692Z,29.53
2018-06-01T08:11:19.215Z,32.57
2018-06-01T08:13:46.775Z,34.17
2018-06-01T08:16:14.301Z,36.10
2018-06-01T08:18:41.831Z,34.77
2018-06-01T08:21:09.360Z,35.73
2018-06-01T08:23:36.911Z,36.63
2018-06-01T08:26:04.432Z,37.17
2018-06-01T08:28:31.966Z,38.03
2018-06-01T08:30:59.491Z,36.87
2018-06-01T08:33:27.238Z,36.93
2018-06-01T08:35:55.659Z,35.43
2018-06-01T08:38:23.195Z,37.07
2018-06-01T08:40:50.755Z,38.50
2018-06-01T08:43:18.293Z,39.07
2018-06-01T08:45:45.820Z,40.40
2018-06-01T08:48:14.165Z,41.17
2018-06-01T08:50:41.683Z,40.30
2018-06-01T08:53:09.208Z,41.83
2018-06-01T08:55:36.736Z,42.00
2018-06-01T08:58:05.026Z,42.33
2018-06-01T09:00:32.559Z,37.97
2018-06-01T09:03:00.076Z,38.70
2018-06-01T09:05:27.627Z,38.80
2018-06-01T09:07:55.140Z,35.50
2018-06-01T09:10:23.557Z,34.57
2018-06-01T09:12:51.055Z,35.03
2018-06-01T09:15:18.577Z,35.60
2018-06-01T09:17:48.035Z,40.30
2018-06-01T09:20:15.711Z,38.77
2018-06-01T09:22:43.251Z,40.00
2018-06-01T09:25:10.778Z,38.93
2018-06-01T09:27:38.327Z,38.90
2018-06-01T09:30:05.851Z,39.07
2018-06-01T09:32:33.371Z,38.60
2018-06-01T09:35:00.894Z,40.33
2018-06-01T09:37:28.419Z,40.27
2018-06-01T09:39:55.987Z,41.13
2018-06-01T09:42:23.503Z,39.80
2018-06-01T09:44:51.027Z,39.30
2018-06-01T09:47:19.303Z,39.70
2018-06-01T09:49:47.578Z,37.83
2018-06-01T09:52:15.111Z,36.43
2018-06-01T09:54:42.642Z,34.83
2018-06-01T09:57:10.163Z,35.73
2018-06-01T09:59:37.690Z,34.50
2018-06-01T10:02:05.212Z,34.90
2018-06-01T10:04:32.730Z,35.23
2018-06-01T10:07:00.243Z,35.00
2018-06-01T10:09:27.808Z,36.20
2018-06-01T10:11:55.335Z,34.37
2018-06-01T10:14:22.855Z,34.77
2018-06-01T10:16:50.376Z,33.40
2018-06-01T10:19:17.894Z,34.17
2018-06-01T10:21:45.440Z,34.47
2018-06-01T10:24:12.964Z,34.37
2018-06-01T10:26:40.483Z,33.83
2018-06-01T10:29:08.016Z,32.50
2018-06-01T10:31:35.539Z,34.30
2018-06-01T10:34:03.060Z,35.83
2018-06-01T10:36:30.582Z,33.93
2018-06-01T10:38:58.103Z,34.17
2018-06-01T10:41:25.627Z,35.63
2018-06-01T10:43:53.148Z,34.20
2018-06-01T10:46:20.671Z,35.40
2018-06-01T10:48:48.194Z,36.60
2018-06-01T10:51:16.007Z,33.00
2018-06-01T10:53:43.532Z,31.53
2018-06-01T10:56:11.063Z,27.33
2018-06-01T10:58:38.584Z,24.47
2018-06-01T11:01:06.111Z,21.53
2018-06-01T11:03:33.627Z,22.97
2018-06-01T11:06:01.149Z,22.23
2018-06-01T11:08:28.672Z,23.30
2018-06-01T11:10:56.212Z,23.10
2018-06-01T11:13:23.740Z,23.63
2018-06-01T11:15:51.258Z,21.20
2018-06-01T11:18:18.826Z,18.90
2018-06-01T11:20:46.343Z,20.47
2018-06-01T11:23:14.560Z,23.53
2018-06-01T11:25:42.079Z,24.33
2018-06-01T11:28:09.604Z,23.63
2018-06-01T11:30:37.900Z,21.00
2018-06-01T11:33:05.415Z,21.73
2018-06-01T11:35:32.938Z,20.47
2018-06-01T11:38:00.459Z,17.73
2018-06-01T11:40:27.983Z,20.20
2018-06-01T11:42:55.497Z,21.97
2018-06-01T11:45:23.018Z,22.70
2018-06-01T11:47:50.558Z,21.97
2018-06-01T11:50:18.109Z,21.83
2018-06-01T11:52:45.623Z,19.83
2018-06-01T11:55:13.142Z,21.43
2018-06-01T11:57:40.668Z,21.60
2018-06-01T12:00:08.198Z,19.67
2018-06-01T12:02:35.711Z,21.70
2018-06-01T12:05:03.234Z,22.57
2018-06-01T12:07:30.755Z,23.77
2018-06-01T12:09:58.270Z,22.43
2018-06-01T12:12:25.782Z,22.90
2018-06-01T12:14:54.075Z,20.30
2018-06-01T12:17:21.610Z,22.13
2018-06-01T12:19:49.132Z,21.23
2018-06-01T12:22:16.647Z,20.17
2018-06-01T12:24:44.163Z,18.40
2018-06-01T12:27:11.675Z,18.97
2018-06-01T12:29:39.186Z,19.47
2018-06-01T12:32:06.707Z,19.10
2018-06-01T12:34:34.223Z,19.93
2018-06-01T12:37:01.747Z,19.57
2018-06-01T12:39:29.268Z,20.60
2018-06-01T12:41:57.563Z,20.70
2018-06-01T12:44:25.272Z,23.27
2018-06-01T12:46:52.816Z,23.33
2018-06-01T12:49:20.338Z,22.90
2018-06-01T12:51:47.870Z,22.77
2018-06-01T12:54:15.403Z,22.90
2018-06-01T12:56:42.924Z,22.97
2018-06-01T12:59:10.440Z,22.83
2018-06-01T13:01:37.958Z,22.77
2018-06-01T13:04:05.485Z,22.10
2018-06-01T13:06:33.015Z,22.87
2018-06-01T13:09:00.550Z,21.73
2018-06-01T13:11:28.072Z,21.40
2018-06-01T13:13:55.590Z,22.77
2018-06-01T13:16:23.104Z,20.13
2018-06-01T13:18:50.641Z,21.83
2018-06-01T13:21:18.931Z,20.90
2018-06-01T13:23:46.454Z,20.67
2018-06-01T13:26:13.963Z,21.20
2018-06-01T13:28:41.483Z,20.03
2018-06-01T13:31:08.995Z,20.87
2018-06-01T13:33:36.515Z,20.63
2018-06-01T13:36:04.807Z,20.53
2018-06-01T13:38:32.342Z,19.83
2018-06-01T13:40:59.862Z,20.50
2018-06-01T13:43:27.420Z,22.40
2018-06-01T13:45:54.940Z,20.83
2018-06-01T13:48:22.462Z,20.40
2018-06-01T13:50:49.974Z,21.73
2018-06-01T13:53:17.499Z,20.73
2018-06-01T13:55:45.023Z,23.23
2018-06-01T13:58:12.543Z,24.00
2018-06-01T14:00:40.828Z,24.13
2018-06-01T14:03:08.354Z,22.83
2018-06-01T14:05:35.883Z,23.93
2018-06-01T14:08:03.398Z,23.97
2018-06-01T14:10:31.684Z,24.33
2018-06-01T14:12:59.228Z,24.87
2018-06-01T14:15:26.751Z,27.90
2018-06-01T14:17:54.263Z,24.63
2018-06-01T14:20:22.542Z,25.20
2018-06-01T14:22:50.069Z,24.37
2018-06-01T14:25:17.599Z,25.03
2018-06-01T14:27:45.118Z,25.20
2018-06-01T14:30:13.393Z,24.80
2018-06-01T14:32:40.915Z,26.33
2018-06-01T14:35:08.442Z,24.10
2018-06-01T14:37:36.045Z,25.63
2018-06-01T14:40:03.510Z,24.60
2018-06-01T14:42:31.037Z,23.80
2018-06-01T14:44:58.556Z,23.87
2018-06-01T14:47:26.079Z,24.27
2018-06-01T14:49:53.591Z,24.83
2018-06-01T14:52:21.107Z,24.70
2018-06-01T14:54:48.628Z,23.13
2018-06-01T14:57:16.146Z,22.80
2018-06-01T14:59:43.664Z,22.47
2018-06-01T15:02:11.183Z,22.20
2018-06-01T15:04:38.695Z,22.03
2018-06-01T15:07:06.212Z,21.77
2018-06-01T15:09:33.740Z,21.57
2018-06-01T15:12:01.267Z,21.23
2018-06-01T15:14:28.776Z,21.37
2018-06-01T15:16:56.299Z,21.47
2018-06-01T15:19:23.819Z,22.30
2018-06-01T15:21:51.349Z,28.43
2018-06-01T15:24:18.871Z,28.97
2018-06-01T15:26:46.551Z,31.30
2018-06-01T15:29:14.079Z,32.93
2018-06-01T15:31:41.592Z,35.50
2018-06-01T15:34:09.880Z,36.53
2018-06-01T15:36:37.395Z,38.97
2018-06-01T15:39:05.706Z,37.60
2018-06-01T15:41:33.219Z,37.30
2018-06-01T15:44:00.730Z,37.83
2018-06-01T15:46:28.258Z,36.70
2018-06-01T15:48:55.836Z,35.77
2018-06-01T15:51:23.331Z,34.77
2018-06-01T15:53:50.851Z,34.93
2018-06-01T15:56:18.376Z,34.40
2018-06-01T15:58:45.904Z,34.77
2018-06-01T16:01:13.432Z,32.47
2018-06-01T16:03:40.947Z,33.13
2018-06-01T16:06:08.466Z,32.33
2018-06-01T16:08:36.011Z,33.13
2018-06-01T16:11:03.532Z,31.10
2018-06-01T16:13:31.059Z,31.23
2018-06-01T16:15:58.580Z,32.37
2018-06-01T16:18:26.095Z,30.87
2018-06-01T16:20:53.613Z,31.40
2018-06-01T16:23:21.130Z,34.23
2018-06-01T16:25:48.644Z,32.57
2018-06-01T16:28:16.169Z,30.80
2018-06-01T16:30:43.698Z,30.80
2018-06-01T16:33:11.218Z,34.60
2018-06-01T16:35:39.499Z,34.20
2018-06-01T16:38:07.031Z,36.47
2018-06-01T16:40:34.545Z,34.90
2018-06-01T16:43:02.084Z,37.67
2018-06-01T16:45:29.599Z,38.20
2018-06-01T16:47:57.166Z,36.07
2018-06-01T16:50:24.659Z,36.57
2018-06-01T16:52:52.187Z,39.23
2018-06-01T16:55:19.694Z,40.23
2018-06-01T16:57:47.215Z,42.73
2018-06-01T17:00:14.733Z,42.27
2018-06-01T17:02:42.262Z,42.37
2018-06-01T17:05:09.809Z,46.00
2018-06-01T17:07:37.330Z,43.40
2018-06-01T17:10:04.842Z,45.77
2018-06-01T17:12:32.367Z,45.57
2018-06-01T17:14:59.874Z,47.63
2018-06-01T17:17:27.405Z,46.23
2018-06-01T17:19:54.923Z,50.57
2018-06-01T17:22:22.443Z,51.93
2018-06-01T17:24:49.967Z,53.43
2018-06-01T17:27:17.499Z,52.13
2018-06-01T17:29:45.025Z,54.30
2018-06-01T17:32:12.547Z,52.77
2018-06-01T17:34:40.071Z,54.27
2018-06-01T17:37:07.591Z,54.33
2018-06-01T17:39:35.110Z,54.80
2018-06-01T17:42:02.627Z,55.23
2018-06-01T17:44:30.148Z,48.43
2018-06-01T17:46:57.658Z,30.80
2018-06-01T17:49:25.181Z,27.43
2018-06-01T17:51:53.110Z,25.93
2018-06-01T17:54:20.626Z,25.10
2018-06-01T17:56:48.143Z,25.33
2018-06-01T17:59:15.661Z,26.37
2018-06-01T18:01:43.170Z,29.53
2018-06-01T18:04:10.683Z,37.67
2018-06-01T18:06:38.207Z,41.83
2018-06-01T18:09:06.460Z,41.53
2018-06-01T18:11:33.983Z,44.50
2018-06-01T18:14:01.526Z,47.73
2018-06-01T18:16:29.816Z,51.47
2018-06-01T18:18:57.342Z,54.07
2018-06-01T18:21:24.861Z,52.67
2018-06-01T18:23:52.374Z,57.97
2018-06-01T18:26:20.650Z,57.30
2018-06-01T18:28:48.959Z,60.33
2018-06-01T18:31:16.486Z,61.53
2018-06-01T18:33:44.010Z,65.80
2018-06-01T18:36:11.531Z,68.43
2018-06-01T18:38:39.067Z,69.60
2018-06-01T18:41:06.615Z,70.80
2018-06-01T18:43:34.279Z,74.17
2018-06-01T18:46:01.811Z,69.90
2018-06-01T18:48:29.334Z,71.30
2018-06-01T18:50:56.849Z,75.17
2018-06-01T18:53:24.386Z,71.87
2018-06-01T18:55:51.905Z,74.03
2018-06-01T18:58:20.182Z,71.93
2018-06-01T19:00:48.386Z,71.20
2018-06-01T19:03:15.914Z,67.10
2018-06-01T19:05:43.443Z,71.33
2018-06-01T19:08:11.041Z,72.83
2018-06-01T19:10:38.520Z,74.27
2018-06-01T19:13:06.075Z,68.57
2018-06-01T19:15:33.591Z,69.47
2018-06-01T19:18:01.114Z,71.97
2018-06-01T19:20:28.631Z,68.87
2018-06-01T19:22:56.919Z,71.03
2018-06-01T19:25:24.453Z,70.53
2018-06-01T19:27:51.975Z,68.73
2018-06-01T19:30:19.482Z,63.77
2018-06-01T19:32:46.999Z,63.43
2018-06-01T19:35:14.518Z,67.87
2018-06-01T19:37:42.039Z,60.93
2018-06-01T19:40:09.604Z,63.67
2018-06-01T19:42:37.127Z,60.70
2018-06-01T19:45:04.639Z,60.50
2018-06-01T19:47:32.154Z,55.63
2018-06-01T19:49:59.674Z,49.83
2018-06-01T19:52:27.415Z,30.90
2018-06-01T19:54:54.939Z,24.27
2018-06-01T19:57:22.464Z,27.70
2018-06-01T19:59:50.868Z,24.93
2018-06-01T20:02:18.389Z,22.83
2018-06-01T20:04:46.679Z,20.73
2018-06-01T20:07:14.370Z,22.27
2018-06-01T20:09:41.882Z,22.43
2018-06-01T20:12:10.169Z,22.70
2018-06-01T20:14:39.703Z,21.77
2018-06-01T20:17:07.272Z,23.50
2018-06-01T20:19:34.783Z,19.43
2018-06-01T20:22:02.299Z,19.93
2018-06-01T20:24:29.815Z,18.33
2018-06-01T20:26:58.099Z,17.90
2018-06-01T20:29:26.502Z,16.43
2018-06-01T20:31:54.023Z,17.33
2018-06-01T20:34:21.549Z,16.20
2018-06-01T20:36:49.072Z,14.23
2018-06-01T20:39:16.594Z,13.40
2018-06-01T20:41:44.916Z,15.00
2018-06-01T20:44:12.548Z,13.93
2018-06-01T20:46:40.861Z,13.07
2018-06-01T20:49:08.818Z,14.50
2018-06-01T20:51:37.266Z,13.43
2018-06-01T20:54:04.836Z,12.87
2018-06-01T20:56:32.412Z,12.73
2018-06-01T20:59:00.692Z,12.80
2018-06-01T21:01:28.971Z,12.93
2018-06-01T21:03:56.511Z,12.67
2018-06-01T21:06:24.028Z,13.67
2018-06-01T21:08:51.559Z,15.00
2018-06-01T21:11:19.072Z,16.17
2018-06-01T21:13:46.608Z,17.17
2018-06-01T21:16:14.123Z,18.90
2018-06-01T21:18:41.955Z,21.47
2018-06-01T21:21:09.557Z,22.97
2018-06-01T21:23:37.034Z,25.63
2018-06-01T21:26:04.558Z,28.80
2018-06-01T21:28:32.084Z,30.03
2018-06-01T21:30:59.651Z,30.80
2018-06-01T21:33:27.143Z,34.50
2018-06-01T21:35:54.665Z,35.10
2018-06-01T21:38:22.188Z,39.87
2018-06-01T21:40:49.698Z,40.27
2018-06-01T21:43:17.212Z,42.57
2018-06-01T21:45:44.730Z,42.00
2018-06-01T21:48:12.243Z,43.93
2018-06-01T21:50:39.759Z,44.23
2018-06-01T21:53:07.281Z,45.27
2018-06-01T21:55:34.803Z,47.97
2018-06-01T21:58:02.322Z,46.93
2018-06-01T22:00:29.839Z,47.93
2018-06-01T22:02:57.357Z,49.57
2018-06-01T22:05:24.871Z,49.03
2018-06-01T22:07:52.417Z,48.50
2018-06-01T22:10:19.942Z,48.63
2018-06-01T22:12:47.456Z,50.97
2018-06-01T22:15:14.975Z,49.27
2018-06-01T22:17:43.263Z,46.93
2018-06-01T22:20:10.775Z,47.43
2018-06-01T22:22:38.290Z,48.73
2018-06-01T22:25:05.811Z,48.60
2018-06-01T22:27:33.331Z,48.67
2018-06-01T22:30:00.843Z,48.33
2018-06-01T22:32:28.366Z,48.70
2018-06-01T22:34:55.881Z,49.43
2018-06-01T22:37:23.402Z,51.33
2018-06-01T22:39:50.916Z,49.60
2018-06-01T22:42:18.489Z,48.97
2018-06-01T22:44:45.979Z,47.97
2018-06-01T22:47:13.498Z,48.97
2018-06-01T22:49:41.011Z,50.53
2018-06-01T22:52:09.297Z,47.23
2018-06-01T22:54:36.810Z,47.63
2018-06-01T22:57:04.332Z,46.80
2018-06-01T22:59:32.639Z,47.50
2018-06-01T23:02:00.154Z,49.70
2018-06-01T23:04:27.666Z,47.97
2018-06-01T23:06:55.203Z,47.20
2018-06-01T23:09:22.719Z,49.83
2018-06-01T23:11:50.234Z,47.40
2018-06-01T23:14:17.747Z,46.43
2018-06-01T23:16:45.259Z,47.17
2018-06-01T23:19:12.775Z,48.63
2018-06-01T23:21:40.298Z,46.57
2018-06-01T23:24:07.815Z,47.73
2018-06-01T23:26:35.341Z,47.17
2018-06-01T23:29:03.630Z,46.20
2018-06-01T23:31:31.142Z,45.50
2018-06-01T23:33:58.655Z,44.00
2018-06-01T23:36:26.169Z,43.30
2018-06-01T23:38:53.698Z,43.63
2018-06-01T23:41:21.211Z,43.77
2018-06-01T23:43:48.723Z,43.03
2018-06-01T23:46:16.250Z,42.10
2018-06-01T23:48:43.771Z,44.43
2018-06-01T23:51:11.291Z,42.47
2018-06-01T23:53:38.803Z,41.73
2018-06-01T23:56:06.314Z,43.00
2018-06-01T23:58:34.266Z,41.47
